Time,TemperatureF,DewpointF,PressureIn,WindDirection,WindDirectionDegrees,WindSpeedMPH,WindSpeedGustMPH,Humidity,HourlyPrecipIn,Conditions,Clouds,dailyrainin,SoftwareType,DateUTC
2013-02-02 00:00:00,37.2,20.3,30.44,WNW,292,0.0,0.0,50,0.00,,FEW230,0.50,VWS V14.01,2013-02-02 06:00:00,
2013-02-02 00:05:00,37.0,20.1,30.44,SE,135,0.0,0.0,50,0.00,,CLR,0.50,VWS V14.01,2013-02-02 06:05:00,
2013-02-02 00:10:00,37.0,20.1,30.44,SE,135,0.0,0.0,50,0.00,,CLR,0.50,VWS V14.01,2013-02-02 06:10:00,
2013-02-02 00:15:00,36.9,20.0,30.44,SE,135,0.0,0.0,50,0.00,,CLR,0.50,VWS V14.01,2013-02-02 06:15:00,
2013-02-02 00:20:00,36.9,20.0,30.44,WNW,292,0.0,0.0,50,0.00,,CLR,0.50,VWS V14.01,2013-02-02 06:20:00,
2013-02-02 00:25:00,36.9,20.0,30.44,SSE,158,0.0,0.0,50,0.00,,CLR,0.50,VWS V14.01,2013-02-02 06:25:00,
2013-02-02 00:30:00,36.9,20.0,30.44,SSE,158,0.0,0.0,50,0.00,,CLR,0.50,VWS V14.01,2013-02-02 06:30:00,
2013-02-02 00:35:00,36.7,19.8,30.44,North,0,0.0,0.0,50,0.00,,CLR,0.50,VWS V14.01,2013-02-02 06:35:00,
2013-02-02 00:40:00,36.7,19.8,30.44,SSE,158,0.0,0.0,50,0.00,,CLR,0.50,VWS V14.01,2013-02-02 06:40:00,
2013-02-02 00:45:00,36.1,19.3,30.44,West,270,0.0,0.0,50,0.00,,BKN120,0.50,VWS V14.01,2013-02-02 06:45:00,
2013-02-02 00:46:00,36.7,19.8,30.44,SSE,158,0.0,0.0,50,0.00,,CLR,0.50,VWS V14.01,2013-02-02 06:46:00,
2013-02-02 00:50:00,36.0,19.1,30.42,West,270,0.0,0.0,50,0.00,,BKN120,0.50,VWS V14.01,2013-02-02 06:50:00,
2013-02-02 00:51:00,36.7,19.8,30.44,SSE,158,0.0,0.0,50,0.00,,CLR,0.50,VWS V14.01,2013-02-02 06:51:00,
2013-02-02 00:55:00,35.8,19.0,30.42,West,270,0.0,0.0,50,0.00,,BKN120,0.50,VWS V14.01,2013-02-02 06:55:00,
2013-02-02 00:56:00,36.7,19.8,30.44,WNW,292,0.0,0.0,50,0.00,,CLR,0.50,VWS V14.01,2013-02-02 06:56:00,
2013-02-02 01:00:00,35.8,19.0,30.42,West,270,0.0,0.0,50,0.00,,CLR,0.50,VWS V14.01,2013-02-02 07:00:00,
2013-02-02 01:01:00,36.7,19.8,30.44,WNW,292,0.0,0.0,50,0.00,,CLR,0.50,VWS V14.01,2013-02-02 07:01:00,
2013-02-02 01:05:00,35.6,18.8,30.44,West,270,0.0,0.0,50,0.00,,CLR,0.50,VWS V14.01,2013-02-02 07:05:00,
2013-02-02 01:06:00,36.7,19.8,30.44,WNW,292,0.0,0.0,50,0.00,,CLR,0.50,VWS V14.01,2013-02-02 07:06:00,
2013-02-02 01:10:00,35.4,18.6,30.44,West,270,0.0,0.0,50,0.00,,BKN120,0.50,VWS V14.01,2013-02-02 07:10:00,
2013-02-02 01:11:00,36.7,19.8,30.44,WNW,292,0.0,0.0,50,0.00,,CLR,0.50,VWS V14.01,2013-02-02 07:11:00,
2013-02-02 01:15:00,35.2,18.5,30.44,West,270,0.0,0.0,50,0.00,,CLR,0.50,VWS V14.01,2013-02-02 07:15:00,
2013-02-02 01:16:00,36.5,19.6,30.44,NW,315,0.0,0.0,50,0.00,,CLR,0.50,VWS V14.01,2013-02-02 07:16:00,
2013-02-02 01:20:00,35.2,18.5,30.42,West,270,0.0,0.0,50,0.00,,BKN120,0.50,VWS V14.01,2013-02-02 07:20:00,
2013-02-02 01:21:00,36.5,19.6,30.44,WNW,292,0.0,0.0,50,0.00,,CLR,0.50,VWS V14.01,2013-02-02 07:21:00,
2013-02-02 01:25:00,35.1,18.3,30.42,West,270,0.0,0.0,50,0.00,,CLR,0.50,VWS V14.01,2013-02-02 07:25:00,
2013-02-02 01:26:00,36.3,19.5,30.44,WNW,292,0.0,0.0,50,0.00,,CLR,0.50,VWS V14.01,2013-02-02 07:26:00,
2013-02-02 01:30:00,35.1,18.3,30.42,West,270,0.0,0.0,50,0.00,,BKN120,0.50,VWS V14.01,2013-02-02 07:30:00,
2013-02-02 01:31:00,36.3,19.5,30.44,WNW,292,0.0,0.0,50,0.00,,CLR,0.50,VWS V14.01,2013-02-02 07:31:00,
2013-02-02 01:35:00,34.9,18.1,30.42,West,270,0.0,0.0,50,0.00,,BKN120,0.50,VWS V14.01,2013-02-02 07:35:00,
2013-02-02 01:36:00,36.3,19.5,30.44,WNW,292,0.0,0.0,50,0.00,,CLR,0.50,VWS V14.01,2013-02-02 07:36:00,
2013-02-02 01:40:00,34.9,18.1,30.42,NNW,338,0.0,1.1,50,0.00,,BKN120,0.50,VWS V14.01,2013-02-02 07:40:00,
2013-02-02 01:41:00,36.1,19.3,30.44,WNW,292,0.0,0.0,50,0.00,,CLR,0.50,VWS V14.01,2013-02-02 07:41:00,
2013-02-02 01:45:00,34.9,18.6,30.42,NNE,22,0.0,0.0,51,0.00,,CLR,0.50,VWS V14.01,2013-02-02 07:45:00,
2013-02-02 01:46:00,36.1,19.3,30.44,West,270,0.0,0.0,50,0.00,,CLR,0.50,VWS V14.01,2013-02-02 07:46:00,
2013-02-02 01:50:00,34.7,18.0,30.44,NE,45,0.0,0.0,50,0.00,,BKN120,0.50,VWS V14.01,2013-02-02 07:50:00,
2013-02-02 01:51:00,36.0,19.1,30.41,West,270,0.0,0.0,50,0.00,,CLR,0.50,VWS V14.01,2013-02-02 07:51:00,
2013-02-02 01:55:00,34.7,18.0,30.44,NE,45,0.0,0.0,50,0.00,,BKN120,0.50,VWS V14.01,2013-02-02 07:55:00,
2013-02-02 01:56:00,35.8,19.0,30.41,West,270,0.0,0.0,50,0.00,,CLR,0.50,VWS V14.01,2013-02-02 07:56:00,
2013-02-02 02:00:00,34.9,18.6,30.44,South,180,0.0,0.0,51,0.00,,CLR,0.50,VWS V14.01,2013-02-02 08:00:00,
2013-02-02 02:02:00,35.6,18.8,30.44,West,270,0.0,0.0,50,0.00,,CLR,0.50,VWS V14.01,2013-02-02 08:02:00,
2013-02-02 02:05:00,34.9,18.1,30.42,SSE,158,0.0,0.0,50,0.00,,BKN120,0.50,VWS V14.01,2013-02-02 08:05:00,
2013-02-02 02:07:00,35.4,18.6,30.44,West,270,0.0,0.0,50,0.00,,CLR,0.50,VWS V14.01,2013-02-02 08:07:00,
2013-02-02 02:10:00,34.9,18.1,30.42,East,90,0.0,0.0,50,0.00,,BKN120,0.50,VWS V14.01,2013-02-02 08:10:00,
2013-02-02 02:12:00,35.4,18.6,30.44,West,270,0.0,0.0,50,0.00,,CLR,0.50,VWS V14.01,2013-02-02 08:12:00,
2013-02-02 02:15:00,34.9,18.1,30.42,WNW,292,0.0,0.0,50,0.00,,CLR,0.50,VWS V14.01,2013-02-02 08:15:00,
2013-02-02 02:17:00,35.2,18.9,30.41,West,270,0.0,0.0,51,0.00,,CLR,0.00,VWS V14.01,2013-02-02 08:17:00,
2013-02-02 02:20:00,34.9,18.1,30.42,NW,315,0.0,0.0,50,0.00,,CLR,0.50,VWS V14.01,2013-02-02 08:20:00,
2013-02-02 02:22:00,35.1,18.3,30.41,West,270,0.0,0.0,50,0.00,,CLR,0.50,VWS V14.01,2013-02-02 08:22:00,
2013-02-02 02:25:00,35.1,18.3,30.42,SE,135,0.0,1.3,50,0.00,,BKN120,0.50,VWS V14.01,2013-02-02 08:25:00,
2013-02-02 02:27:00,35.1,18.3,30.41,West,270,0.0,0.0,50,0.00,,CLR,0.50,VWS V14.01,2013-02-02 08:27:00,
2013-02-02 02:30:00,35.1,18.3,30.42,SE,135,0.0,0.0,50,0.00,,BKN120,0.50,VWS V14.01,2013-02-02 08:30:00,
2013-02-02 02:32:00,34.9,18.1,30.41,West,270,0.0,0.0,50,0.00,,CLR,0.50,VWS V14.01,2013-02-02 08:32:00,
2013-02-02 02:35:00,35.1,18.3,30.44,SE,135,0.0,0.0,50,0.00,,BKN120,0.50,VWS V14.01,2013-02-02 08:35:00,
2013-02-02 02:37:00,34.9,18.1,30.41,West,270,0.0,0.0,50,0.00,,CLR,0.50,VWS V14.01,2013-02-02 08:37:00,
2013-02-02 02:40:00,34.9,18.1,30.44,SE,135,0.0,0.0,50,0.00,,BKN120,0.50,VWS V14.01,2013-02-02 08:40:00,
2013-02-02 02:42:00,34.9,18.1,30.41,NNE,22,0.0,0.0,50,0.00,,CLR,0.50,VWS V14.01,2013-02-02 08:42:00,
2013-02-02 02:45:00,34.7,18.0,30.44,SE,135,0.0,0.0,50,0.00,,BKN120,0.50,VWS V14.01,2013-02-02 08:45:00,
2013-02-02 02:47:00,34.9,18.6,30.44,NNE,22,0.0,0.0,51,0.00,,CLR,0.50,VWS V14.01,2013-02-02 08:47:00,
2013-02-02 02:50:00,34.5,17.8,30.42,NW,315,0.0,1.1,50,0.00,,BKN120,0.50,VWS V14.01,2013-02-02 08:50:00,
2013-02-02 02:52:00,34.7,18.0,30.44,NNW,338,0.0,0.0,50,0.00,,CLR,0.50,VWS V14.01,2013-02-02 08:52:00,
2013-02-02 02:55:00,34.5,17.8,30.42,NW,315,0.0,0.0,50,0.00,,BKN120,0.50,VWS V14.01,2013-02-02 08:55:00,
2013-02-02 02:57:00,34.9,18.6,30.44,NNW,338,0.0,0.0,51,0.00,,CLR,0.50,VWS V14.01,2013-02-02 08:57:00,
2013-02-02 03:00:00,34.3,17.6,30.42,West,270,0.0,1.1,50,0.00,,BKN120,0.50,VWS V14.01,2013-02-02 09:00:00,
2013-02-02 03:02:00,34.9,18.1,30.41,SSE,158,0.0,0.0,50,0.00,,CLR,0.50,VWS V14.01,2013-02-02 09:02:00,
2013-02-02 03:05:00,34.3,18.1,30.42,West,270,0.0,0.0,51,0.00,,CLR,0.50,VWS V14.01,2013-02-02 09:05:00,
2013-02-02 03:07:00,34.9,18.1,30.41,SSE,158,0.0,0.0,50,0.00,,CLR,0.50,VWS V14.01,2013-02-02 09:07:00,
2013-02-02 03:10:00,34.3,17.6,30.42,NE,45,0.0,0.0,50,0.00,,BKN120,0.50,VWS V14.01,2013-02-02 09:10:00,
2013-02-02 03:12:00,34.9,18.1,30.41,East,90,0.0,0.0,50,0.00,,CLR,0.50,VWS V14.01,2013-02-02 09:12:00,
2013-02-02 03:15:00,34.3,17.6,30.42,NNE,22,0.0,0.0,50,0.00,,CLR,0.50,VWS V14.01,2013-02-02 09:15:00,
2013-02-02 03:17:00,34.9,18.1,30.41,SSW,202,0.0,0.0,50,0.00,,CLR,0.50,VWS V14.01,2013-02-02 09:17:00,
2013-02-02 03:20:00,34.2,17.5,30.42,WSW,248,0.0,0.0,50,0.00,,BKN120,0.50,VWS V14.01,2013-02-02 09:20:00,
2013-02-02 03:22:00,35.1,18.3,30.41,SE,135,0.0,1.3,50,0.00,,CLR,0.50,VWS V14.01,2013-02-02 09:22:00,
2013-02-02 03:25:00,34.2,17.5,30.42,WSW,248,0.0,0.0,50,0.00,,BKN120,0.50,VWS V14.01,2013-02-02 09:25:00,
2013-02-02 03:27:00,35.1,18.3,30.41,SE,135,0.0,0.0,50,0.00,,CLR,0.50,VWS V14.01,2013-02-02 09:27:00,
2013-02-02 03:30:00,34.2,17.5,30.42,ESE,112,0.0,0.0,50,0.00,,BKN120,0.50,VWS V14.01,2013-02-02 09:30:00,
2013-02-02 03:32:00,35.1,18.3,30.44,SE,135,0.0,0.0,50,0.00,,CLR,0.50,VWS V14.01,2013-02-02 09:32:00,
2013-02-02 03:35:00,34.2,17.5,30.42,ESE,112,0.0,0.0,50,0.00,,BKN120,0.50,VWS V14.01,2013-02-02 09:35:00,
2013-02-02 03:37:00,34.9,18.1,30.44,SE,135,0.0,0.0,50,0.00,,CLR,0.50,VWS V14.01,2013-02-02 09:37:00,
2013-02-02 03:40:00,34.2,17.5,30.42,NNE,22,0.0,0.0,50,0.00,,BKN120,0.50,VWS V14.01,2013-02-02 09:40:00,
2013-02-02 03:42:00,34.9,18.1,30.44,SE,135,0.0,0.0,50,0.00,,CLR,0.50,VWS V14.01,2013-02-02 09:42:00,
2013-02-02 03:45:00,34.0,17.3,30.42,NNE,22,0.0,0.0,50,0.00,,BKN120,0.50,VWS V14.01,2013-02-02 09:45:00,
2013-02-02 03:48:00,34.5,17.8,30.41,SE,135,0.0,1.1,50,0.00,,CLR,0.50,VWS V14.01,2013-02-02 09:48:00,
2013-02-02 03:50:00,34.0,17.3,30.42,NW,315,0.0,0.0,50,0.00,,BKN120,0.50,VWS V14.01,2013-02-02 09:50:00,
2013-02-02 03:53:00,34.5,17.8,30.41,North,0,0.0,0.0,50,0.00,,CLR,0.50,VWS V14.01,2013-02-02 09:53:00,
2013-02-02 03:55:00,34.0,17.3,30.42,West,270,0.0,0.0,50,0.00,,BKN120,0.50,VWS V14.01,2013-02-02 09:55:00,
2013-02-02 03:58:00,34.3,17.6,30.41,West,270,0.0,1.1,50,0.00,,CLR,0.50,VWS V14.01,2013-02-02 09:58:00,
2013-02-02 04:00:00,34.0,17.8,30.42,West,270,0.0,0.0,51,0.00,,BKN120,0.50,VWS V14.01,2013-02-02 10:00:00,
2013-02-02 04:03:00,34.3,18.1,30.41,West,270,0.0,0.0,51,0.00,,CLR,0.50,VWS V14.01,2013-02-02 10:03:00,
2013-02-02 04:05:00,33.8,17.1,30.44,WSW,248,0.0,0.0,50,0.00,,BKN120,0.50,VWS V14.01,2013-02-02 10:05:00,
2013-02-02 04:08:00,34.3,17.6,30.41,NE,45,0.0,0.0,50,0.00,,CLR,0.50,VWS V14.01,2013-02-02 10:08:00,
2013-02-02 04:10:00,33.8,17.6,30.44,WSW,248,0.0,0.0,51,0.00,,BKN120,0.50,VWS V14.01,2013-02-02 10:10:00,
2013-02-02 04:13:00,34.3,17.6,30.41,NNE,22,0.0,0.0,50,0.00,,CLR,0.50,VWS V14.01,2013-02-02 10:13:00,
2013-02-02 04:15:00,33.8,17.6,30.44,SW,225,0.0,0.0,51,0.00,,BKN120,0.50,VWS V14.01,2013-02-02 10:15:00,
2013-02-02 04:18:00,34.3,17.6,30.41,WNW,292,0.0,0.0,50,0.00,,CLR,0.50,VWS V14.01,2013-02-02 10:18:00,
2013-02-02 04:20:00,33.6,17.4,30.44,SW,225,0.0,0.0,51,0.00,,BKN120,0.50,VWS V14.01,2013-02-02 10:20:00,
2013-02-02 04:23:00,34.3,17.6,30.41,WSW,248,0.0,0.0,50,0.00,,CLR,0.50,VWS V14.01,2013-02-02 10:23:00,
2013-02-02 04:25:00,33.6,17.4,30.44,WSW,248,0.0,0.0,51,0.00,,BKN120,0.50,VWS V14.01,2013-02-02 10:25:00,
2013-02-02 04:28:00,34.2,17.5,30.41,ESE,112,0.0,0.0,50,0.00,,CLR,0.50,VWS V14.01,2013-02-02 10:28:00,
2013-02-02 04:30:00,33.4,17.3,30.44,West,270,0.0,0.0,51,0.00,,BKN120,0.50,VWS V14.01,2013-02-02 10:30:00,
2013-02-02 04:33:00,34.2,17.5,30.41,ESE,112,0.0,0.0,50,0.00,,CLR,0.50,VWS V14.01,2013-02-02 10:33:00,
2013-02-02 04:35:00,33.3,17.1,30.44,WNW,292,0.0,0.0,51,0.00,,BKN120,0.50,VWS V14.01,2013-02-02 10:35:00,
2013-02-02 04:38:00,34.2,17.5,30.41,NNW,338,0.0,0.0,50,0.00,,CLR,0.50,VWS V14.01,2013-02-02 10:38:00,
2013-02-02 04:40:00,33.3,17.1,30.44,NNW,338,0.0,0.0,51,0.00,,CLR,0.50,VWS V14.01,2013-02-02 10:40:00,
2013-02-02 04:43:00,34.2,17.5,30.41,NNE,22,0.0,0.0,50,0.00,,CLR,0.50,VWS V14.01,2013-02-02 10:43:00,
2013-02-02 04:45:00,33.1,16.9,30.44,WNW,292,0.0,0.0,51,0.00,,BKN120,0.50,VWS V14.01,2013-02-02 10:45:00,
2013-02-02 04:48:00,34.0,17.3,30.41,North,0,0.0,0.0,50,0.00,,CLR,0.50,VWS V14.01,2013-02-02 10:48:00,
2013-02-02 04:50:00,33.1,16.9,30.44,WNW,292,0.0,0.0,51,0.00,,BKN120,0.50,VWS V14.01,2013-02-02 10:50:00,
2013-02-02 04:53:00,34.0,17.3,30.41,NW,315,0.0,0.0,50,0.00,,CLR,0.50,VWS V14.01,2013-02-02 10:53:00,
2013-02-02 04:55:00,32.9,16.8,30.44,WNW,292,0.0,0.0,51,0.00,,BKN120,0.50,VWS V14.01,2013-02-02 10:55:00,
2013-02-02 04:58:00,34.0,17.8,30.41,West,270,0.0,0.0,51,0.00,,CLR,0.50,VWS V14.01,2013-02-02 10:58:00,
2013-02-02 05:00:00,32.9,16.8,30.44,WNW,292,0.0,0.0,51,0.00,,BKN120,0.50,VWS V14.01,2013-02-02 11:00:00,
2013-02-02 05:03:00,33.8,17.1,30.44,WSW,248,0.0,0.0,50,0.00,,CLR,0.50,VWS V14.01,2013-02-02 11:03:00,
2013-02-02 05:05:00,32.7,16.6,30.44,WNW,292,0.0,0.0,51,0.00,,BKN120,0.50,VWS V14.01,2013-02-02 11:05:00,
2013-02-02 05:08:00,33.8,17.1,30.44,WSW,248,0.0,0.0,50,0.00,,CLR,0.50,VWS V14.01,2013-02-02 11:08:00,
2013-02-02 05:10:00,32.7,16.6,30.44,SSE,158,0.0,0.0,51,0.00,,BKN120,0.50,VWS V14.01,2013-02-02 11:10:00,
2013-02-02 05:13:00,33.8,17.6,30.44,SW,225,0.0,0.0,51,0.00,,CLR,0.50,VWS V14.01,2013-02-02 11:13:00,
2013-02-02 05:15:00,32.7,16.6,30.44,SE,135,0.0,0.0,51,0.00,,BKN120,0.50,VWS V14.01,2013-02-02 11:15:00,
2013-02-02 05:18:00,33.8,17.1,30.44,SW,225,0.0,0.0,50,0.00,,CLR,0.50,VWS V14.01,2013-02-02 11:18:00,
2013-02-02 05:20:00,32.7,16.6,30.44,SE,135,0.0,0.0,51,0.00,,BKN120,0.50,VWS V14.01,2013-02-02 11:20:00,
2013-02-02 05:23:00,33.6,17.4,30.44,WSW,248,0.0,0.0,51,0.00,,CLR,0.50,VWS V14.01,2013-02-02 11:23:00,
2013-02-02 05:25:00,32.7,17.0,30.44,South,180,0.0,0.0,52,0.00,,BKN120,0.50,VWS V14.01,2013-02-02 11:25:00,
2013-02-02 05:28:00,33.4,17.3,30.44,WSW,248,0.0,0.0,51,0.00,,CLR,0.50,VWS V14.01,2013-02-02 11:28:00,
2013-02-02 05:30:00,32.5,16.9,30.44,SSW,202,0.0,0.0,52,0.00,,BKN120,0.50,VWS V14.01,2013-02-02 11:30:00,
2013-02-02 05:33:00,33.3,17.1,30.44,WNW,292,0.0,0.0,51,0.00,,CLR,0.50,VWS V14.01,2013-02-02 11:33:00,
2013-02-02 05:35:00,32.5,16.9,30.44,SSW,202,0.0,0.0,52,0.00,,BKN120,0.50,VWS V14.01,2013-02-02 11:35:00,
2013-02-02 05:38:00,33.3,17.1,30.44,WNW,292,0.0,0.0,51,0.00,,CLR,0.50,VWS V14.01,2013-02-02 11:38:00,
2013-02-02 05:40:00,32.4,16.7,30.44,SSW,202,0.0,0.0,52,0.00,,BKN120,0.50,VWS V14.01,2013-02-02 11:40:00,
2013-02-02 05:44:00,33.1,16.9,30.44,WNW,292,0.0,0.0,51,0.00,,CLR,0.50,VWS V14.01,2013-02-02 11:44:00,
2013-02-02 05:45:00,32.4,16.7,30.44,SSW,202,0.0,0.0,52,0.00,,BKN120,0.50,VWS V14.01,2013-02-02 11:45:00,
2013-02-02 05:49:00,33.1,16.9,30.44,WNW,292,0.0,0.0,51,0.00,,CLR,0.50,VWS V14.01,2013-02-02 11:49:00,
2013-02-02 05:50:00,32.2,17.0,30.44,South,180,0.0,0.0,53,0.00,,BKN120,0.50,VWS V14.01,2013-02-02 11:50:00,
2013-02-02 05:54:00,33.1,16.9,30.44,WNW,292,0.0,0.0,51,0.00,,CLR,0.50,VWS V14.01,2013-02-02 11:54:00,
2013-02-02 05:55:00,32.2,17.0,30.44,South,180,0.0,0.0,53,0.00,,BKN120,0.50,VWS V14.01,2013-02-02 11:55:00,
2013-02-02 05:59:00,32.9,16.8,30.44,WNW,292,0.0,0.0,51,0.00,,CLR,0.50,VWS V14.01,2013-02-02 11:59:00,
2013-02-02 06:00:00,32.2,17.0,30.44,South,180,0.0,0.0,53,0.00,,BKN120,0.50,VWS V14.01,2013-02-02 12:00:00,
2013-02-02 06:04:00,32.7,16.6,30.44,WNW,292,0.0,0.0,51,0.00,,CLR,0.50,VWS V14.01,2013-02-02 12:04:00,
2013-02-02 06:05:00,32.4,17.2,30.47,SSW,202,0.0,0.0,53,0.00,,BKN120,0.50,VWS V14.01,2013-02-02 12:05:00,
2013-02-02 06:09:00,32.7,16.6,30.44,SSE,158,0.0,0.0,51,0.00,,CLR,0.50,VWS V14.01,2013-02-02 12:09:00,
2013-02-02 06:10:00,32.5,17.8,30.47,SSW,202,0.0,0.0,54,0.00,,BKN120,0.50,VWS V14.01,2013-02-02 12:10:00,
2013-02-02 06:14:00,32.7,16.6,30.44,SE,135,0.0,0.0,51,0.00,,CLR,0.50,VWS V14.01,2013-02-02 12:14:00,
2013-02-02 06:15:00,32.9,18.1,30.47,SSW,202,0.0,0.0,54,0.00,,BKN120,0.50,VWS V14.01,2013-02-02 12:15:00,
2013-02-02 06:19:00,32.7,16.6,30.44,SE,135,0.0,0.0,51,0.00,,CLR,0.50,VWS V14.01,2013-02-02 12:19:00,
2013-02-02 06:20:00,33.1,18.3,30.47,SSW,202,0.0,0.0,54,0.00,,BKN120,0.50,VWS V14.01,2013-02-02 12:20:00,
2013-02-02 06:24:00,32.7,17.0,30.44,South,180,0.0,0.0,52,0.00,,CLR,0.50,VWS V14.01,2013-02-02 12:24:00,
2013-02-02 06:25:00,33.6,18.8,30.47,SSW,202,0.0,0.0,54,0.00,,BKN120,0.50,VWS V14.01,2013-02-02 12:25:00,
2013-02-02 06:29:00,32.7,17.0,30.44,SSW,202,0.0,0.0,52,0.00,,CLR,0.50,VWS V14.01,2013-02-02 12:29:00,
2013-02-02 06:30:00,33.8,18.9,30.47,SSW,202,0.0,0.0,54,0.00,,BKN120,0.50,VWS V14.01,2013-02-02 12:30:00,
2013-02-02 06:34:00,32.5,16.9,30.44,SSW,202,0.0,0.0,52,0.00,,CLR,0.50,VWS V14.01,2013-02-02 12:34:00,
2013-02-02 06:35:00,34.5,19.2,30.47,NE,45,1.6,1.6,53,0.00,,BKN120,0.50,VWS V14.01,2013-02-02 12:35:00,
2013-02-02 06:39:00,32.4,16.7,30.44,SSW,202,0.0,0.0,52,0.00,,CLR,0.50,VWS V14.01,2013-02-02 12:39:00,
2013-02-02 06:40:00,35.4,19.6,30.47,NNW,338,0.0,2.5,52,0.00,,BKN120,0.50,VWS V14.01,2013-02-02 12:40:00,
2013-02-02 06:44:00,32.4,16.7,30.44,SSW,202,0.0,0.0,52,0.00,,CLR,0.00,VWS V14.01,2013-02-02 12:44:00,
2013-02-02 06:45:00,36.3,20.4,30.47,SSE,158,0.0,0.9,52,0.00,,BKN120,0.50,VWS V14.01,2013-02-02 12:45:00,
2013-02-02 06:49:00,32.4,17.1,30.44,South,180,0.0,0.0,53,0.00,,CLR,0.50,VWS V14.01,2013-02-02 12:49:00,
2013-02-02 06:50:00,37.2,20.8,30.47,East,90,0.9,3.6,51,0.00,,BKN120,0.50,VWS V14.01,2013-02-02 12:50:00,
2013-02-02 06:54:00,32.2,17.0,30.44,South,180,0.0,0.0,53,0.00,,CLR,0.50,VWS V14.01,2013-02-02 12:54:00,
2013-02-02 06:55:00,38.1,21.1,30.47,ENE,68,0.0,2.2,50,0.00,,BKN120,0.50,VWS V14.01,2013-02-02 12:55:00,
2013-02-02 06:59:00,32.2,17.0,30.44,South,180,0.0,0.0,53,0.00,,CLR,0.50,VWS V14.01,2013-02-02 12:59:00,
2013-02-02 07:00:00,38.8,21.3,30.47,WSW,248,1.1,3.4,49,0.00,,BKN120,0.50,VWS V14.01,2013-02-02 13:00:00,
2013-02-02 07:04:00,32.4,17.1,30.47,SSW,202,0.0,0.0,53,0.00,,CLR,0.50,VWS V14.01,2013-02-02 13:04:00,
2013-02-02 07:05:00,39.4,20.8,30.47,ENE,68,1.3,2.9,47,0.00,,BKN120,0.50,VWS V14.01,2013-02-02 13:05:00,
2013-02-02 07:09:00,32.5,17.8,30.47,SSW,202,0.0,0.0,54,0.00,,CLR,0.50,VWS V14.01,2013-02-02 13:09:00,
2013-02-02 07:10:00,40.1,21.5,30.47,NNW,338,1.6,2.7,47,0.00,,CLR,0.50,VWS V14.01,2013-02-02 13:10:00,
2013-02-02 07:14:00,32.9,18.1,30.47,SSW,202,0.0,0.0,54,0.00,,CLR,0.50,VWS V14.01,2013-02-02 13:14:00,
2013-02-02 07:15:00,40.6,21.0,30.47,SSE,158,2.0,3.8,45,0.00,,CLR,0.50,VWS V14.01,2013-02-02 13:15:00,
2013-02-02 07:19:00,33.1,18.3,30.47,SSW,202,0.0,0.0,54,0.00,,CLR,0.50,VWS V14.01,2013-02-02 13:19:00,
2013-02-02 07:20:00,41.0,21.3,30.47,NNE,22,2.0,2.9,45,0.00,,BKN120,0.50,VWS V14.01,2013-02-02 13:20:00,
2013-02-02 07:25:00,33.6,18.8,30.47,SSW,202,0.0,0.0,54,0.00,,CLR,0.50,VWS V14.01,2013-02-02 13:25:00,
2013-02-02 07:30:00,33.8,18.9,30.47,SSW,202,0.0,0.0,54,0.00,,CLR,0.50,VWS V14.01,2013-02-02 13:30:00,
2013-02-02 07:35:00,34.7,19.3,30.47,NE,45,0.9,1.6,53,0.00,,CLR,0.50,VWS V14.01,2013-02-02 13:35:00,
2013-02-02 07:40:00,35.4,19.6,30.47,ENE,68,0.9,0.9,52,0.00,,CLR,0.50,VWS V14.01,2013-02-02 13:40:00,
2013-02-02 07:45:00,36.3,20.4,30.47,SSE,158,0.0,0.0,52,0.00,,CLR,0.50,VWS V14.01,2013-02-02 13:45:00,
2013-02-02 07:50:00,37.4,20.5,30.47,East,90,0.9,0.9,50,0.00,,CLR,0.50,VWS V14.01,2013-02-02 13:50:00,
2013-02-02 07:55:00,38.5,21.5,30.47,SSE,158,0.0,0.0,50,0.00,,CLR,0.50,VWS V14.01,2013-02-02 13:55:00,
2013-02-02 08:00:00,38.8,21.3,30.47,NNE,22,2.9,2.9,49,0.00,,CLR,0.50,VWS V14.01,2013-02-02 14:00:00,
2013-02-02 08:05:00,39.6,21.0,30.47,East,90,2.2,2.5,47,0.00,,CLR,0.50,VWS V14.01,2013-02-02 14:05:00,
2013-02-02 08:10:00,40.3,21.7,30.47,ENE,68,1.3,1.6,47,0.00,,CLR,0.50,VWS V14.01,2013-02-02 14:10:00,
2013-02-02 08:15:00,40.6,21.0,30.47,SSW,202,2.2,2.2,45,0.00,,CLR,0.50,VWS V14.01,2013-02-02 14:15:00,
2013-02-02 08:20:00,41.2,20.9,30.47,NE,45,2.7,3.1,44,0.00,,CLR,0.50,VWS V14.01,2013-02-02 14:20:00,
2013-02-02 08:25:00,41.5,20.7,30.47,SSE,158,1.3,2.0,43,0.00,,CLR,0.50,VWS V14.01,2013-02-02 14:25:00,
2013-02-02 08:30:00,41.9,21.0,30.47,NNE,22,0.0,0.0,43,0.00,,CLR,0.50,VWS V14.01,2013-02-02 14:30:00,
2013-02-02 08:35:00,42.4,22.1,30.47,South,180,1.3,1.3,44,0.00,,CLR,0.50,VWS V14.01,2013-02-02 14:35:00,
2013-02-02 08:40:00,42.8,21.3,30.47,East,90,2.0,2.9,42,0.00,,CLR,0.50,VWS V14.01,2013-02-02 14:40:00,
2013-02-02 08:45:00,43.2,21.6,30.47,SSE,158,1.1,1.3,42,0.00,,CLR,0.50,VWS V14.01,2013-02-02 14:45:00,
2013-02-02 08:50:00,43.5,22.0,30.47,ESE,112,0.0,1.1,42,0.00,,CLR,0.50,VWS V14.01,2013-02-02 14:50:00,
2013-02-02 08:55:00,50.0,26.6,30.47,ESE,112,0.0,2.0,40,0.00,,BKN120,0.50,VWS V14.01,2013-02-02 14:55:00,
2013-02-02 08:56:00,43.9,22.3,30.47,East,90,0.9,3.4,42,0.00,,CLR,0.50,VWS V14.01,2013-02-02 14:56:00,
2013-02-02 09:00:00,50.5,27.1,30.47,SSW,202,0.0,2.5,40,0.00,,BKN120,0.50,VWS V14.01,2013-02-02 15:00:00,
2013-02-02 09:01:00,44.2,22.6,30.47,ENE,68,0.9,3.8,42,0.00,,CLR,0.50,VWS V14.01,2013-02-02 15:01:00,
2013-02-02 09:05:00,50.7,26.7,30.47,East,90,0.9,2.5,39,0.00,,BKN120,0.50,VWS V14.01,2013-02-02 15:05:00,
2013-02-02 09:06:00,45.1,22.9,30.47,ENE,68,1.1,2.2,41,0.00,,CLR,0.50,VWS V14.01,2013-02-02 15:06:00,
2013-02-02 09:10:00,51.6,28.1,30.47,East,90,0.0,2.0,40,0.00,,BKN120,0.50,VWS V14.01,2013-02-02 15:10:00,
2013-02-02 09:11:00,45.5,23.2,30.47,East,90,0.9,2.0,41,0.00,,CLR,0.50,VWS V14.01,2013-02-02 15:11:00,
2013-02-02 09:15:00,52.0,27.8,30.47,WNW,292,1.6,1.6,39,0.00,,BKN120,0.50,VWS V14.01,2013-02-02 15:15:00,
2013-02-02 09:16:00,46.2,24.4,30.47,East,90,0.0,1.3,42,0.00,,CLR,0.50,VWS V14.01,2013-02-02 15:16:00,
2013-02-02 09:20:00,52.0,27.2,30.47,NE,45,1.6,2.5,38,0.00,,BKN120,0.50,VWS V14.01,2013-02-02 15:20:00,
2013-02-02 09:21:00,46.9,25.1,30.47,ENE,68,0.9,0.9,42,0.00,,CLR,0.50,VWS V14.01,2013-02-02 15:21:00,
2013-02-02 09:25:00,52.3,27.5,30.47,ESE,112,0.0,2.7,38,0.00,,BKN120,0.50,VWS V14.01,2013-02-02 15:25:00,
2013-02-02 09:26:00,47.3,24.8,30.47,West,270,1.3,1.3,41,0.00,,CLR,0.50,VWS V14.01,2013-02-02 15:26:00,
2013-02-02 09:30:00,52.7,28.5,30.47,SW,225,0.9,1.6,39,0.00,,BKN120,0.50,VWS V14.01,2013-02-02 15:30:00,
2013-02-02 09:31:00,47.8,24.7,30.47,East,90,0.0,1.3,40,0.00,,CLR,0.50,VWS V14.01,2013-02-02 15:31:00,
2013-02-02 09:35:00,53.1,28.1,30.47,East,90,0.0,2.0,38,0.00,,BKN120,0.50,VWS V14.01,2013-02-02 15:35:00,
2013-02-02 09:36:00,48.2,25.6,30.47,East,90,0.0,1.1,41,0.00,,CLR,0.50,VWS V14.01,2013-02-02 15:36:00,
2013-02-02 09:40:00,53.1,28.1,30.47,SSW,202,1.3,2.9,38,0.00,,BKN120,0.50,VWS V14.01,2013-02-02 15:40:00,
2013-02-02 09:41:00,48.7,25.5,30.47,SSW,202,1.1,1.3,40,0.00,,CLR,0.50,VWS V14.01,2013-02-02 15:41:00,
2013-02-02 09:45:00,53.2,28.3,30.47,SSW,202,0.0,2.0,38,0.00,,BKN120,0.50,VWS V14.01,2013-02-02 15:45:00,
2013-02-02 09:46:00,49.5,26.2,30.47,North,0,0.9,1.3,40,0.00,,CLR,0.00,VWS V14.01,2013-02-02 15:46:00,
2013-02-02 09:50:00,54.0,29.0,30.44,ESE,112,2.0,2.0,38,0.00,,BKN120,0.50,VWS V14.01,2013-02-02 15:50:00,
2013-02-02 09:51:00,49.8,26.5,30.47,ESE,112,0.0,1.1,40,0.00,,CLR,0.50,VWS V14.01,2013-02-02 15:51:00,
2013-02-02 09:55:00,54.5,28.8,30.44,South,180,0.0,2.2,37,0.00,,BKN120,0.50,VWS V14.01,2013-02-02 15:55:00,
2013-02-02 09:56:00,50.2,26.8,30.47,ESE,112,0.0,1.6,40,0.00,,CLR,0.50,VWS V14.01,2013-02-02 15:56:00,
2013-02-02 10:00:00,54.7,28.9,30.44,WSW,248,0.0,2.7,37,0.00,,BKN120,0.50,VWS V14.01,2013-02-02 16:00:00,
2013-02-02 10:01:00,50.5,27.1,30.47,South,180,0.0,1.6,40,0.00,,CLR,0.00,VWS V14.01,2013-02-02 16:01:00,
2013-02-02 10:05:00,55.6,29.1,30.44,South,180,2.5,2.9,36,0.00,,BKN120,0.50,VWS V14.01,2013-02-02 16:05:00,
2013-02-02 10:06:00,51.1,27.6,30.47,SSE,158,0.9,2.0,40,0.00,,CLR,0.50,VWS V14.01,2013-02-02 16:06:00,
2013-02-02 10:10:00,55.9,29.4,30.44,SSE,158,0.0,3.4,36,0.00,,CLR,0.50,VWS V14.01,2013-02-02 16:10:00,
2013-02-02 10:12:00,51.6,27.5,30.47,WSW,248,1.1,1.6,39,0.00,,CLR,0.50,VWS V14.01,2013-02-02 16:12:00,
2013-02-02 10:15:00,55.9,29.4,30.44,WSW,248,1.6,2.0,36,0.00,,CLR,0.50,VWS V14.01,2013-02-02 16:15:00,
2013-02-02 10:17:00,52.0,27.2,30.47,ENE,68,2.2,2.2,38,0.00,,CLR,0.50,VWS V14.01,2013-02-02 16:17:00,
2013-02-02 10:20:00,56.5,30.5,30.44,SW,225,0.0,2.5,37,0.00,,BKN120,0.50,VWS V14.01,2013-02-02 16:20:00,
2013-02-02 10:22:00,52.2,27.3,30.47,ESE,112,1.3,2.7,38,0.00,,CLR,0.50,VWS V14.01,2013-02-02 16:22:00,
2013-02-02 10:25:00,57.4,30.7,30.44,South,180,1.6,2.5,36,0.00,,CLR,0.50,VWS V14.01,2013-02-02 16:25:00,
2013-02-02 10:27:00,52.5,27.7,30.47,ESE,112,0.0,0.0,38,0.00,,CLR,0.50,VWS V14.01,2013-02-02 16:27:00,
2013-02-02 10:30:00,57.6,30.8,30.44,SSE,158,1.3,3.4,36,0.00,,BKN120,0.50,VWS V14.01,2013-02-02 16:30:00,
2013-02-02 10:32:00,52.9,28.0,30.47,SSW,202,0.0,2.0,38,0.00,,CLR,0.50,VWS V14.01,2013-02-02 16:32:00,
2013-02-02 10:35:00,57.9,30.5,30.44,WNW,292,2.2,2.7,35,0.00,,BKN120,0.50,VWS V14.01,2013-02-02 16:35:00,
2013-02-02 10:37:00,53.1,28.1,30.47,SW,225,1.6,2.9,38,0.00,,CLR,0.50,VWS V14.01,2013-02-02 16:37:00,
2013-02-02 10:40:00,57.9,30.5,30.44,SSE,158,1.3,2.5,35,0.00,,BKN120,0.50,VWS V14.01,2013-02-02 16:40:00,
2013-02-02 10:42:00,53.2,28.3,30.47,WSW,248,2.0,2.0,38,0.00,,CLR,0.50,VWS V14.01,2013-02-02 16:42:00,
2013-02-02 10:45:00,58.1,31.3,30.44,East,90,1.3,3.1,36,0.00,,BKN120,0.50,VWS V14.01,2013-02-02 16:45:00,
2013-02-02 10:47:00,53.6,28.6,30.44,ESE,112,0.9,1.6,38,0.00,,CLR,0.50,VWS V14.01,2013-02-02 16:47:00,
2013-02-02 10:50:00,58.1,31.3,30.44,South,180,1.3,2.5,36,0.00,,BKN120,0.50,VWS V14.01,2013-02-02 16:50:00,
2013-02-02 10:52:00,54.1,29.1,30.44,West,270,0.0,2.2,38,0.00,,CLR,0.50,VWS V14.01,2013-02-02 16:52:00,
2013-02-02 10:55:00,58.5,31.6,30.44,SSE,158,2.7,3.1,36,0.00,,CLR,0.50,VWS V14.01,2013-02-02 16:55:00,
2013-02-02 10:57:00,54.7,28.9,30.44,SW,225,2.7,2.7,37,0.00,,CLR,0.50,VWS V14.01,2013-02-02 16:57:00,
2013-02-02 11:00:00,58.3,32.2,30.44,SSW,202,1.3,2.7,37,0.00,,BKN120,0.50,VWS V14.01,2013-02-02 17:00:00,
2013-02-02 11:02:00,55.2,29.4,30.44,WNW,292,2.5,2.5,37,0.00,,CLR,0.50,VWS V14.01,2013-02-02 17:02:00,
2013-02-02 11:05:00,57.7,31.7,30.39,East,90,2.0,2.2,37,0.00,,BKN120,0.50,VWS V14.01,2013-02-02 17:05:00,
2013-02-02 11:07:00,55.9,29.4,30.44,SSE,158,0.9,3.4,36,0.00,,CLR,0.50,VWS V14.01,2013-02-02 17:07:00,
2013-02-02 11:10:00,57.9,31.8,30.39,SSE,158,1.3,2.9,37,0.00,,BKN120,0.50,VWS V14.01,2013-02-02 17:10:00,
2013-02-02 11:12:00,55.9,29.4,30.44,SW,225,1.6,1.6,36,0.00,,CLR,0.50,VWS V14.01,2013-02-02 17:12:00,
2013-02-02 11:15:00,57.7,31.7,30.39,SSE,158,1.6,2.7,37,0.00,,BKN120,0.50,VWS V14.01,2013-02-02 17:15:00,
2013-02-02 11:17:00,56.7,30.7,30.44,West,270,2.5,2.5,37,0.00,,CLR,0.50,VWS V14.01,2013-02-02 17:17:00,
2013-02-02 11:20:00,57.6,31.5,30.39,SSW,202,1.1,2.2,37,0.00,,BKN120,0.50,VWS V14.01,2013-02-02 17:20:00,
2013-02-02 11:22:00,57.0,31.0,30.44,SE,135,1.1,2.5,37,0.00,,CLR,0.50,VWS V14.01,2013-02-02 17:22:00,
2013-02-02 11:25:00,57.4,32.0,30.39,SSE,158,0.0,2.5,38,0.00,,BKN120,0.50,VWS V14.01,2013-02-02 17:25:00,
2013-02-02 11:27:00,57.6,30.8,30.44,South,180,1.1,2.0,36,0.00,,CLR,0.50,VWS V14.01,2013-02-02 17:27:00,
2013-02-02 11:30:00,57.4,32.0,30.39,SW,225,0.9,2.2,38,0.00,,BKN120,0.50,VWS V14.01,2013-02-02 17:30:00,
2013-02-02 11:32:00,57.9,31.1,30.44,SSW,202,0.0,2.2,36,0.00,,CLR,0.50,VWS V14.01,2013-02-02 17:32:00,
2013-02-02 11:35:00,57.6,32.2,30.39,WSW,248,1.3,2.7,38,0.00,,BKN120,0.50,VWS V14.01,2013-02-02 17:35:00,
2013-02-02 11:38:00,57.7,30.3,30.44,South,180,1.6,2.2,35,0.00,,CLR,0.50,VWS V14.01,2013-02-02 17:38:00,
2013-02-02 11:40:00,57.7,33.0,30.39,South,180,1.1,2.2,39,0.00,,BKN120,0.50,VWS V14.01,2013-02-02 17:40:00,
2013-02-02 11:43:00,58.1,31.3,30.44,SE,135,2.0,3.1,36,0.00,,CLR,0.50,VWS V14.01,2013-02-02 17:43:00,
2013-02-02 11:45:00,58.5,33.6,30.39,SSE,158,1.6,2.0,39,0.00,,BKN120,0.50,VWS V14.01,2013-02-02 17:45:00,
2013-02-02 11:48:00,58.1,31.3,30.44,ESE,112,0.0,2.5,36,0.00,,CLR,0.50,VWS V14.01,2013-02-02 17:48:00,
2013-02-02 11:50:00,58.6,33.8,30.36,SE,135,0.0,3.6,39,0.00,,BKN120,0.50,VWS V14.01,2013-02-02 17:50:00,
2013-02-02 11:53:00,58.3,31.5,30.44,SSE,158,1.3,3.1,36,0.00,,CLR,0.50,VWS V14.01,2013-02-02 17:53:00,
2013-02-02 11:55:00,58.8,33.9,30.36,SSW,202,0.0,3.1,39,0.00,,BKN120,0.50,VWS V14.01,2013-02-02 17:55:00,
2013-02-02 11:58:00,58.5,32.3,30.44,South,180,2.0,2.7,37,0.00,,CLR,0.50,VWS V14.01,2013-02-02 17:58:00,
2013-02-02 12:00:00,58.8,33.9,30.36,SSE,158,2.0,3.4,39,0.00,,CLR,0.50,VWS V14.01,2013-02-02 18:00:00,
2013-02-02 12:03:00,57.9,31.8,30.39,SW,225,0.9,2.0,37,0.00,,CLR,0.50,VWS V14.01,2013-02-02 18:03:00,
2013-02-02 12:05:00,58.6,33.8,30.39,SSW,202,0.9,3.1,39,0.00,,BKN120,0.50,VWS V14.01,2013-02-02 18:05:00,
2013-02-02 12:08:00,57.9,31.8,30.39,SSE,158,0.0,2.9,37,0.00,,CLR,0.50,VWS V14.01,2013-02-02 18:08:00,
2013-02-02 12:10:00,59.0,33.5,30.39,South,180,0.0,2.7,38,0.00,,BKN120,0.50,VWS V14.01,2013-02-02 18:10:00,
2013-02-02 12:13:00,57.7,31.7,30.39,South,180,2.0,2.7,37,0.00,,CLR,0.50,VWS V14.01,2013-02-02 18:13:00,
2013-02-02 12:15:00,59.4,34.4,30.39,SSW,202,2.5,2.5,39,0.00,,BKN120,0.50,VWS V14.01,2013-02-02 18:15:00,
2013-02-02 12:18:00,57.6,31.5,30.39,SSE,158,1.1,2.2,37,0.00,,CLR,0.50,VWS V14.01,2013-02-02 18:18:00,
2013-02-02 12:20:00,58.8,34.6,30.39,South,180,2.0,3.4,40,0.00,,BKN120,0.50,VWS V14.01,2013-02-02 18:20:00,
2013-02-02 12:23:00,57.6,31.5,30.39,South,180,1.1,2.5,37,0.00,,CLR,0.50,VWS V14.01,2013-02-02 18:23:00,
2013-02-02 12:25:00,58.8,33.9,30.39,SSW,202,2.2,2.9,39,0.00,,CLR,0.50,VWS V14.01,2013-02-02 18:25:00,
2013-02-02 12:28:00,57.4,32.0,30.39,SSW,202,1.6,2.2,38,0.00,,CLR,0.50,VWS V14.01,2013-02-02 18:28:00,
2013-02-02 12:30:00,58.5,33.6,30.39,SSE,158,0.0,2.9,39,0.00,,CLR,0.50,VWS V14.01,2013-02-02 18:30:00,
2013-02-02 12:33:00,57.4,32.0,30.39,East,90,2.0,2.7,38,0.00,,CLR,0.50,VWS V14.01,2013-02-02 18:33:00,
2013-02-02 12:35:00,58.6,34.4,30.36,SSW,202,2.0,2.0,40,0.00,,BKN120,0.50,VWS V14.01,2013-02-02 18:35:00,
2013-02-02 12:38:00,57.6,32.2,30.39,SSW,202,0.0,2.2,38,0.00,,CLR,0.50,VWS V14.01,2013-02-02 18:38:00,
2013-02-02 12:40:00,58.8,34.6,30.36,SSE,158,1.3,2.0,40,0.00,,CLR,0.50,VWS V14.01,2013-02-02 18:40:00,
2013-02-02 12:43:00,58.3,33.5,30.39,SSE,158,0.9,2.0,39,0.00,,CLR,0.50,VWS V14.01,2013-02-02 18:43:00,
2013-02-02 12:45:00,58.8,34.6,30.36,ESE,112,1.3,3.4,40,0.00,,BKN120,0.50,VWS V14.01,2013-02-02 18:45:00,
2013-02-02 12:48:00,58.5,33.0,30.36,SE,135,0.0,3.6,38,0.00,,CLR,0.50,VWS V14.01,2013-02-02 18:48:00,
2013-02-02 12:50:00,59.0,34.7,30.36,WSW,248,0.0,2.2,40,0.00,,BKN120,0.50,VWS V14.01,2013-02-02 18:50:00,
2013-02-02 12:53:00,58.8,33.9,30.36,South,180,2.0,3.1,39,0.00,,CLR,0.50,VWS V14.01,2013-02-02 18:53:00,
2013-02-02 12:55:00,59.2,34.9,30.36,ENE,68,0.0,2.0,40,0.00,,BKN120,0.50,VWS V14.01,2013-02-02 18:55:00,
2013-02-02 12:58:00,58.8,33.9,30.36,South,180,2.0,2.9,39,0.00,,CLR,0.50,VWS V14.01,2013-02-02 18:58:00,
2013-02-02 13:00:00,59.4,35.7,30.36,SSW,202,1.3,2.7,41,0.00,,BKN120,0.50,VWS V14.01,2013-02-02 19:00:00,
2013-02-02 13:03:00,58.6,33.8,30.39,South,180,0.0,3.1,39,0.00,,CLR,0.50,VWS V14.01,2013-02-02 19:03:00,
2013-02-02 13:05:00,59.2,35.5,30.36,SSE,158,1.1,2.7,41,0.00,,BKN120,0.50,VWS V14.01,2013-02-02 19:05:00,
2013-02-02 13:09:00,59.0,33.5,30.39,South,180,0.0,2.7,38,0.00,,CLR,0.50,VWS V14.01,2013-02-02 19:09:00,
2013-02-02 13:10:00,59.2,35.5,30.36,SE,135,0.0,1.6,41,0.00,,CLR,0.50,VWS V14.01,2013-02-02 19:10:00,
2013-02-02 13:14:00,59.4,34.4,30.39,SSE,158,0.0,2.0,39,0.00,,CLR,0.50,VWS V14.01,2013-02-02 19:14:00,
2013-02-02 13:15:00,59.4,35.7,30.36,SSE,158,0.0,2.2,41,0.00,,BKN120,0.50,VWS V14.01,2013-02-02 19:15:00,
2013-02-02 13:19:00,59.0,34.1,30.39,South,180,3.4,3.4,39,0.00,,CLR,0.50,VWS V14.01,2013-02-02 19:19:00,
2013-02-02 13:20:00,59.5,35.8,30.36,SSW,202,2.9,2.9,41,0.00,,BKN120,0.50,VWS V14.01,2013-02-02 19:20:00,
2013-02-02 13:24:00,58.8,33.9,30.39,SSW,202,2.2,2.9,39,0.00,,CLR,0.50,VWS V14.01,2013-02-02 19:24:00,
2013-02-02 13:25:00,59.2,35.5,30.36,SSW,202,2.0,3.4,41,0.00,,BKN120,0.50,VWS V14.01,2013-02-02 19:25:00,
2013-02-02 13:29:00,58.5,34.2,30.39,SSE,158,1.3,2.9,40,0.00,,CLR,0.50,VWS V14.01,2013-02-02 19:29:00,
2013-02-02 13:30:00,59.0,35.3,30.36,SSE,158,1.3,2.7,41,0.00,,CLR,0.50,VWS V14.01,2013-02-02 19:30:00,
2013-02-02 13:34:00,58.6,34.4,30.36,South,180,0.9,2.0,40,0.00,,CLR,0.50,VWS V14.01,2013-02-02 19:34:00,
2013-02-02 13:35:00,58.8,35.8,30.36,South,180,0.9,2.7,42,0.00,,CLR,0.50,VWS V14.01,2013-02-02 19:35:00,
2013-02-02 13:39:00,58.8,34.6,30.36,SSW,202,1.6,2.0,40,0.00,,CLR,0.50,VWS V14.01,2013-02-02 19:39:00,
2013-02-02 13:40:00,58.6,36.2,30.36,South,180,0.0,2.0,43,0.00,,BKN120,0.50,VWS V14.01,2013-02-02 19:40:00,
2013-02-02 13:44:00,58.8,34.6,30.36,SSE,158,1.3,3.4,40,0.00,,CLR,0.50,VWS V14.01,2013-02-02 19:44:00,
2013-02-02 13:45:00,59.2,36.7,30.36,SSE,158,1.3,2.9,43,0.00,,CLR,0.50,VWS V14.01,2013-02-02 19:45:00,
2013-02-02 13:49:00,59.0,34.7,30.36,SW,225,1.1,2.2,40,0.00,,CLR,0.50,VWS V14.01,2013-02-02 19:49:00,
2013-02-02 13:50:00,59.0,36.6,30.33,SSE,158,1.6,3.1,43,0.00,,BKN120,0.50,VWS V14.01,2013-02-02 19:50:00,
2013-02-02 13:54:00,59.2,34.9,30.36,ENE,68,0.9,2.0,40,0.00,,CLR,0.50,VWS V14.01,2013-02-02 19:54:00,
2013-02-02 13:55:00,58.8,37.0,30.33,South,180,1.1,4.7,44,0.00,,BKN120,0.50,VWS V14.01,2013-02-02 19:55:00,
2013-02-02 13:59:00,59.4,35.7,30.36,SE,135,0.9,2.7,41,0.00,,CLR,0.50,VWS V14.01,2013-02-02 19:59:00,
2013-02-02 14:00:00,58.6,36.8,30.33,SSE,158,1.1,2.0,44,0.00,,BKN120,0.50,VWS V14.01,2013-02-02 20:00:00,
2013-02-02 14:04:00,59.2,35.5,30.36,SSE,158,0.9,2.7,41,0.00,,CLR,0.50,VWS V14.01,2013-02-02 20:04:00,
2013-02-02 14:05:00,58.8,37.5,30.33,SSW,202,0.9,2.7,45,0.00,,BKN120,0.50,VWS V14.01,2013-02-02 20:05:00,
2013-02-02 14:09:00,59.2,35.5,30.36,SE,135,0.9,1.6,41,0.00,,CLR,0.50,VWS V14.01,2013-02-02 20:09:00,
2013-02-02 14:10:00,58.5,37.2,30.33,SSE,158,0.0,2.7,45,0.00,,BKN120,0.50,VWS V14.01,2013-02-02 20:10:00,
2013-02-02 14:14:00,59.4,35.7,30.36,SSE,158,0.9,2.2,41,0.00,,CLR,0.50,VWS V14.01,2013-02-02 20:14:00,
2013-02-02 14:15:00,58.3,37.0,30.33,SSE,158,0.0,1.1,45,0.00,,BKN120,0.50,VWS V14.01,2013-02-02 20:15:00,
2013-02-02 14:19:00,59.5,35.8,30.36,SSE,158,1.3,1.3,41,0.00,,CLR,0.50,VWS V14.01,2013-02-02 20:19:00,
2013-02-02 14:20:00,58.3,37.6,30.33,SSW,202,1.6,3.1,46,0.00,,BKN120,0.50,VWS V14.01,2013-02-02 20:20:00,
2013-02-02 14:24:00,59.2,35.5,30.36,South,180,0.9,3.4,41,0.00,,CLR,0.50,VWS V14.01,2013-02-02 20:24:00,
2013-02-02 14:25:00,58.3,37.6,30.33,SSE,158,0.0,2.2,46,0.00,,BKN120,0.50,VWS V14.01,2013-02-02 20:25:00,
2013-02-02 14:29:00,59.0,35.3,30.36,SSE,158,1.6,2.7,41,0.00,,CLR,0.50,VWS V14.01,2013-02-02 20:29:00,
2013-02-02 14:30:00,58.3,37.6,30.33,WSW,248,0.9,2.0,46,0.00,,BKN120,0.50,VWS V14.01,2013-02-02 20:30:00,
2013-02-02 14:34:00,58.8,35.8,30.36,South,180,0.9,2.7,42,0.00,,CLR,0.50,VWS V14.01,2013-02-02 20:34:00,
2013-02-02 14:35:00,58.3,37.6,30.30,SSE,158,3.4,3.4,46,0.00,,BKN120,0.50,VWS V14.01,2013-02-02 20:35:00,
2013-02-02 14:39:00,58.6,36.2,30.36,South,180,0.0,2.0,43,0.00,,CLR,0.50,VWS V14.01,2013-02-02 20:39:00,
2013-02-02 14:40:00,58.5,38.3,30.30,South,180,0.0,3.4,47,0.00,,BKN120,0.50,VWS V14.01,2013-02-02 20:40:00,
2013-02-02 14:44:00,59.2,36.7,30.36,SSE,158,1.3,2.9,43,0.00,,CLR,0.50,VWS V14.01,2013-02-02 20:44:00,
2013-02-02 14:45:00,58.6,38.5,30.30,South,180,0.9,1.6,47,0.00,,BKN120,0.50,VWS V14.01,2013-02-02 20:45:00,
2013-02-02 14:49:00,59.0,36.6,30.33,SSE,158,1.6,3.1,43,0.00,,CLR,0.50,VWS V14.01,2013-02-02 20:49:00,
2013-02-02 14:50:00,59.4,39.2,30.33,South,180,1.6,2.2,47,0.00,,BKN120,0.50,VWS V14.01,2013-02-02 20:50:00,
2013-02-02 14:54:00,58.8,37.0,30.33,South,180,1.1,4.7,44,0.00,,CLR,0.50,VWS V14.01,2013-02-02 20:54:00,
2013-02-02 14:55:00,59.0,38.8,30.33,SW,225,0.9,2.9,47,0.00,,BKN120,0.50,VWS V14.01,2013-02-02 20:55:00,
2013-02-02 14:59:00,58.6,36.8,30.33,SSE,158,1.1,2.0,44,0.00,,CLR,0.50,VWS V14.01,2013-02-02 20:59:00,
2013-02-02 15:00:00,58.5,38.3,30.33,South,180,1.3,2.0,47,0.00,,BKN120,0.50,VWS V14.01,2013-02-02 21:00:00,
2013-02-02 15:04:00,58.8,37.5,30.33,SSW,202,0.9,2.7,45,0.00,,CLR,0.50,VWS V14.01,2013-02-02 21:04:00,
2013-02-02 15:05:00,57.9,38.4,30.33,SSE,158,2.5,2.5,48,0.00,,BKN120,0.50,VWS V14.01,2013-02-02 21:05:00,
2013-02-02 15:09:00,58.5,37.2,30.33,SSE,158,0.0,2.7,45,0.00,,CLR,0.50,VWS V14.01,2013-02-02 21:09:00,
2013-02-02 15:10:00,57.7,38.7,30.33,SSW,202,1.3,2.5,49,0.00,,BKN120,0.50,VWS V14.01,2013-02-02 21:10:00,
2013-02-02 15:15:00,58.3,37.0,30.33,SSE,158,0.0,0.0,45,0.00,,CLR,0.50,VWS V14.01,2013-02-02 21:15:00,
2013-02-02 15:20:00,58.3,37.6,30.33,South,180,0.0,1.6,46,0.00,,CLR,0.50,VWS V14.01,2013-02-02 21:20:00,
2013-02-02 15:25:00,58.3,37.6,30.33,SSE,158,0.0,0.0,46,0.00,,CLR,0.50,VWS V14.01,2013-02-02 21:25:00,
2013-02-02 15:30:00,58.3,37.6,30.33,SSE,158,0.9,0.9,46,0.00,,CLR,0.50,VWS V14.01,2013-02-02 21:30:00,
2013-02-02 15:35:00,58.3,37.6,30.30,South,180,1.3,3.4,46,0.00,,CLR,0.50,VWS V14.01,2013-02-02 21:35:00,
2013-02-02 15:40:00,58.5,38.3,30.30,SSE,158,0.0,0.0,47,0.00,,CLR,0.00,VWS V14.01,2013-02-02 21:40:00,
2013-02-02 15:45:00,58.8,38.7,30.30,South,180,0.0,0.9,47,0.00,,CLR,0.50,VWS V14.01,2013-02-02 21:45:00,
2013-02-02 15:50:00,59.4,39.2,30.33,South,180,0.9,1.6,47,0.00,,CLR,0.50,VWS V14.01,2013-02-02 21:50:00,
2013-02-02 15:55:00,58.8,38.7,30.33,WSW,248,1.1,1.1,47,0.00,,CLR,0.50,VWS V14.01,2013-02-02 21:55:00,
2013-02-02 16:00:00,58.3,38.2,30.33,South,180,0.0,1.3,47,0.00,,CLR,0.50,VWS V14.01,2013-02-02 22:00:00,
2013-02-02 16:05:00,57.9,38.4,30.33,SSE,158,2.2,2.5,48,0.00,,FEW250,0.50,VWS V14.01,2013-02-02 22:05:00,
2013-02-02 16:10:00,57.6,38.6,30.33,SSW,202,0.0,1.3,49,0.00,,FEW250,0.50,VWS V14.01,2013-02-02 22:10:00,
2013-02-02 16:15:00,57.4,38.4,30.33,South,180,0.0,0.0,49,0.00,,FEW250,0.50,VWS V14.01,2013-02-02 22:15:00,
2013-02-02 16:20:00,57.2,38.8,30.33,South,180,0.0,0.0,50,0.00,,FEW250,0.50,VWS V14.01,2013-02-02 22:20:00,
2013-02-02 16:25:00,57.0,39.1,30.33,South,180,0.9,1.3,51,0.00,,FEW250,0.50,VWS V14.01,2013-02-02 22:25:00,
2013-02-02 16:30:00,56.8,39.4,30.33,SW,225,1.1,1.3,52,0.00,,FEW250,0.50,VWS V14.01,2013-02-02 22:30:00,
2013-02-02 16:35:00,52.7,41.3,30.30,South,180,0.0,0.0,65,0.00,,BKN120,0.50,VWS V14.01,2013-02-02 22:35:00,
2013-02-02 16:36:00,56.7,39.7,30.33,SSE,158,0.0,0.0,53,0.00,,FEW250,0.50,VWS V14.01,2013-02-02 22:36:00,
2013-02-02 16:40:00,52.3,41.3,30.30,South,180,0.0,0.0,66,0.00,,BKN120,0.50,VWS V14.01,2013-02-02 22:40:00,
2013-02-02 16:41:00,56.5,40.0,30.33,South,180,0.0,0.0,54,0.00,,FEW250,0.50,VWS V14.01,2013-02-02 22:41:00,
2013-02-02 16:45:00,52.0,41.4,30.30,South,180,0.0,0.0,67,0.00,,BKN120,0.50,VWS V14.01,2013-02-02 22:45:00,
2013-02-02 16:46:00,56.3,40.4,30.33,SSW,202,0.0,0.0,55,0.00,,FEW250,0.50,VWS V14.01,2013-02-02 22:46:00,
2013-02-02 16:50:00,51.4,40.5,30.30,South,180,0.0,0.0,66,0.00,,BKN120,0.50,VWS V14.01,2013-02-02 22:50:00,
2013-02-02 16:51:00,56.1,40.7,30.33,South,180,0.0,0.0,56,0.00,,FEW250,0.50,VWS V14.01,2013-02-02 22:51:00,
2013-02-02 16:55:00,51.3,40.7,30.30,South,180,0.0,0.0,67,0.00,,BKN120,0.50,VWS V14.01,2013-02-02 22:55:00,
2013-02-02 16:56:00,55.9,40.5,30.33,South,180,0.0,0.0,56,0.00,,FEW250,0.50,VWS V14.01,2013-02-02 22:56:00,
2013-02-02 17:00:00,50.9,41.1,30.30,South,180,0.0,0.0,69,0.00,,BKN120,0.50,VWS V14.01,2013-02-02 23:00:00,
2013-02-02 17:01:00,55.8,40.8,30.33,SSE,158,0.0,0.0,57,0.00,,FEW250,0.50,VWS V14.01,2013-02-02 23:01:00,
2013-02-02 17:05:00,50.5,41.5,30.30,South,180,0.0,0.0,71,0.00,,BKN120,0.50,VWS V14.01,2013-02-02 23:05:00,
2013-02-02 17:06:00,55.2,40.7,30.30,South,180,0.0,0.0,58,0.00,,FEW250,0.50,VWS V14.01,2013-02-02 23:06:00,
2013-02-02 17:10:00,50.2,41.2,30.30,South,180,0.0,0.0,71,0.00,,BKN120,0.50,VWS V14.01,2013-02-02 23:10:00,
2013-02-02 17:11:00,54.9,40.8,30.30,South,180,0.0,0.0,59,0.00,,FEW250,0.50,VWS V14.01,2013-02-02 23:11:00,
2013-02-02 17:15:00,50.0,41.3,30.30,South,180,0.0,0.0,72,0.00,,BKN120,0.50,VWS V14.01,2013-02-02 23:15:00,
2013-02-02 17:16:00,54.5,40.9,30.30,SSW,202,0.0,0.0,60,0.00,,FEW250,0.50,VWS V14.01,2013-02-02 23:16:00,
2013-02-02 17:20:00,49.8,41.5,30.30,SW,225,0.0,0.0,73,0.00,,BKN120,0.50,VWS V14.01,2013-02-02 23:20:00,
2013-02-02 17:21:00,54.1,41.0,30.33,SSW,202,0.0,0.0,61,0.00,,FEW250,0.50,VWS V14.01,2013-02-02 23:21:00,
2013-02-02 17:25:00,49.5,41.2,30.30,SW,225,0.0,0.0,73,0.00,,BKN120,0.50,VWS V14.01,2013-02-02 23:25:00,
2013-02-02 17:26:00,53.4,41.2,30.33,South,180,0.0,0.0,63,0.00,,FEW250,0.50,VWS V14.01,2013-02-02 23:26:00,
2013-02-02 17:30:00,49.1,41.2,30.30,WSW,248,0.0,0.0,74,0.00,,BKN120,0.50,VWS V14.01,2013-02-02 23:30:00,
2013-02-02 17:31:00,53.1,41.2,30.33,South,180,0.0,0.0,64,0.00,,FEW250,0.50,VWS V14.01,2013-02-02 23:31:00,
2013-02-02 17:35:00,48.9,41.0,30.33,WSW,248,0.0,0.0,74,0.00,,BKN120,0.50,VWS V14.01,2013-02-02 23:35:00,
2013-02-02 17:36:00,52.7,41.3,30.30,South,180,0.0,0.0,65,0.00,,FEW250,0.50,VWS V14.01,2013-02-02 23:36:00,
2013-02-02 17:40:00,48.7,41.2,30.33,WSW,248,0.0,0.0,75,0.00,,BKN120,0.50,VWS V14.01,2013-02-02 23:40:00,
2013-02-02 17:41:00,52.2,41.2,30.30,South,180,0.0,0.0,66,0.00,,FEW250,0.50,VWS V14.01,2013-02-02 23:41:00,
2013-02-02 17:45:00,48.6,41.0,30.33,WSW,248,0.0,0.0,75,0.00,,BKN120,0.50,VWS V14.01,2013-02-02 23:45:00,
2013-02-02 17:46:00,51.8,40.8,30.30,South,180,0.0,0.0,66,0.00,,FEW250,0.50,VWS V14.01,2013-02-02 23:46:00,
2013-02-02 17:50:00,48.4,40.8,30.33,WSW,248,0.0,0.0,75,0.00,,BKN120,0.50,VWS V14.01,2013-02-02 23:50:00,
2013-02-02 17:51:00,51.4,40.5,30.30,South,180,0.0,0.0,66,0.00,,FEW250,0.50,VWS V14.01,2013-02-02 23:51:00,
2013-02-02 17:55:00,48.2,40.7,30.33,WSW,248,0.0,0.0,75,0.00,,BKN120,0.50,VWS V14.01,2013-02-02 23:55:00,
2013-02-02 17:56:00,51.1,40.9,30.30,South,180,0.0,0.0,68,0.00,,FEW250,0.50,VWS V14.01,2013-02-02 23:56:00,
2013-02-02 18:00:00,48.0,40.8,30.33,WSW,248,0.0,0.0,76,0.00,,BKN120,0.50,VWS V14.01,2013-02-03 00:00:00,
2013-02-02 18:01:00,50.7,41.3,30.30,South,180,0.0,0.0,70,0.00,,FEW250,0.50,VWS V14.01,2013-02-03 00:01:00,
2013-02-02 18:05:00,47.8,41.0,30.33,WSW,248,0.0,0.0,77,0.00,,BKN120,0.50,VWS V14.01,2013-02-03 00:05:00,
2013-02-02 18:06:00,50.4,41.3,30.30,South,180,0.0,0.0,71,0.00,,FEW250,0.50,VWS V14.01,2013-02-03 00:06:00,
2013-02-02 18:10:00,47.7,40.8,30.33,WSW,248,0.0,0.0,77,0.00,,BKN120,0.50,VWS V14.01,2013-02-03 00:10:00,
2013-02-02 18:11:00,50.2,41.5,30.30,South,180,0.0,0.0,72,0.00,,FEW250,0.50,VWS V14.01,2013-02-03 00:11:00,
2013-02-02 18:15:00,47.3,40.8,30.33,WSW,248,0.0,0.0,78,0.00,,BKN120,0.50,VWS V14.01,2013-02-03 00:15:00,
2013-02-02 18:16:00,49.8,41.2,30.30,SW,225,0.0,0.0,72,0.00,,FEW250,0.50,VWS V14.01,2013-02-03 00:16:00,
2013-02-02 18:20:00,47.1,40.6,30.33,WSW,248,0.0,0.0,78,0.00,,BKN120,0.50,VWS V14.01,2013-02-03 00:20:00,
2013-02-02 18:21:00,49.6,41.3,30.30,SW,225,0.0,0.0,73,0.00,,FEW250,0.50,VWS V14.01,2013-02-03 00:21:00,
2013-02-02 18:25:00,46.9,40.5,30.33,WSW,248,0.0,0.0,78,0.00,,CLR,0.50,VWS V14.01,2013-02-03 00:25:00,
2013-02-02 18:27:00,49.3,41.0,30.30,WSW,248,0.0,0.0,73,0.00,,FEW250,0.50,VWS V14.01,2013-02-03 00:27:00,
2013-02-02 18:30:00,46.8,40.6,30.33,WSW,248,0.0,0.0,79,0.00,,BKN120,0.50,VWS V14.01,2013-02-03 00:30:00,
2013-02-02 18:32:00,49.1,41.2,30.33,WSW,248,0.0,0.0,74,0.00,,FEW250,0.50,VWS V14.01,2013-02-03 00:32:00,
2013-02-02 18:35:00,46.8,40.6,30.33,WSW,248,0.0,0.0,79,0.00,,BKN120,0.50,VWS V14.01,2013-02-03 00:35:00,
2013-02-02 18:37:00,48.7,41.2,30.33,WSW,248,0.0,0.0,75,0.00,,FEW250,0.50,VWS V14.01,2013-02-03 00:37:00,
2013-02-02 18:40:00,46.6,40.8,30.33,WSW,248,0.0,0.0,80,0.00,,BKN120,0.50,VWS V14.01,2013-02-03 00:40:00,
2013-02-02 18:42:00,48.6,40.7,30.33,WSW,248,0.0,0.0,74,0.00,,FEW250,0.00,VWS V14.01,2013-02-03 00:42:00,
2013-02-02 18:45:00,46.4,40.6,30.33,WSW,248,0.0,0.0,80,0.00,,BKN120,0.50,VWS V14.01,2013-02-03 00:45:00,
2013-02-02 18:47:00,48.4,40.8,30.33,WSW,248,0.0,0.0,75,0.00,,FEW250,0.50,VWS V14.01,2013-02-03 00:47:00,
2013-02-02 18:50:00,46.4,40.6,30.33,WSW,248,0.0,0.0,80,0.00,,BKN120,0.50,VWS V14.01,2013-02-03 00:50:00,
2013-02-02 18:52:00,48.4,40.8,30.33,WSW,248,0.0,0.0,75,0.00,,FEW250,0.50,VWS V14.01,2013-02-03 00:52:00,
2013-02-02 18:55:00,46.2,40.7,30.33,WSW,248,0.0,0.0,81,0.00,,BKN120,0.50,VWS V14.01,2013-02-03 00:55:00,
2013-02-02 18:57:00,48.0,40.8,30.33,WSW,248,0.0,0.0,76,0.00,,FEW250,0.50,VWS V14.01,2013-02-03 00:57:00,
2013-02-02 19:00:00,46.0,40.9,30.33,WSW,248,0.0,0.0,82,0.00,,BKN120,0.50,VWS V14.01,2013-02-03 01:00:00,
2013-02-02 19:02:00,47.8,41.0,30.33,WSW,248,0.0,0.0,77,0.00,,FEW250,0.50,VWS V14.01,2013-02-03 01:02:00,
2013-02-02 19:05:00,46.0,40.9,30.33,WSW,248,0.0,0.0,82,0.00,,BKN120,0.50,VWS V14.01,2013-02-03 01:05:00,
2013-02-02 19:07:00,47.7,40.8,30.33,WSW,248,0.0,0.0,77,0.00,,FEW250,0.50,VWS V14.01,2013-02-03 01:07:00,
2013-02-02 19:10:00,45.9,40.7,30.33,WSW,248,0.0,0.0,82,0.00,,BKN120,0.50,VWS V14.01,2013-02-03 01:10:00,
2013-02-02 19:12:00,47.5,40.3,30.33,WSW,248,0.0,0.0,76,0.00,,FEW250,0.50,VWS V14.01,2013-02-03 01:12:00,
2013-02-02 19:15:00,45.9,40.7,30.33,WSW,248,0.0,0.0,82,0.00,,CLR,0.50,VWS V14.01,2013-02-03 01:15:00,
2013-02-02 19:17:00,47.3,40.8,30.33,WSW,248,0.0,0.0,78,0.00,,FEW250,0.50,VWS V14.01,2013-02-03 01:17:00,
2013-02-02 19:20:00,45.7,40.5,30.33,WSW,248,0.0,0.0,82,0.00,,BKN120,0.50,VWS V14.01,2013-02-03 01:20:00,
2013-02-02 19:22:00,47.1,40.6,30.33,WSW,248,0.0,0.0,78,0.00,,FEW250,0.50,VWS V14.01,2013-02-03 01:22:00,
2013-02-02 19:25:00,45.5,40.7,30.33,WSW,248,0.0,0.0,83,0.00,,BKN120,0.50,VWS V14.01,2013-02-03 01:25:00,
2013-02-02 19:27:00,46.9,40.8,30.33,WSW,248,0.0,0.0,79,0.00,,FEW250,0.50,VWS V14.01,2013-02-03 01:27:00,
2013-02-02 19:30:00,45.5,40.7,30.33,WSW,248,0.0,0.0,83,0.00,,CLR,0.50,VWS V14.01,2013-02-03 01:30:00,
2013-02-02 19:32:00,46.8,40.6,30.33,WSW,248,0.0,0.0,79,0.00,,FEW250,0.50,VWS V14.01,2013-02-03 01:32:00,
2013-02-02 19:35:00,45.3,40.5,30.33,WSW,248,0.0,0.0,83,0.00,,BKN120,0.50,VWS V14.01,2013-02-03 01:35:00,
2013-02-02 19:37:00,46.6,40.8,30.33,WSW,248,0.0,0.0,80,0.00,,FEW250,0.50,VWS V14.01,2013-02-03 01:37:00,
2013-02-02 19:40:00,45.3,40.5,30.33,SSE,158,0.0,0.0,83,0.00,,CLR,0.50,VWS V14.01,2013-02-03 01:40:00,
2013-02-02 19:42:00,46.6,40.8,30.33,WSW,248,0.0,0.0,80,0.00,,FEW250,0.50,VWS V14.01,2013-02-03 01:42:00,
2013-02-02 19:45:00,45.1,40.3,30.33,SSE,158,0.0,0.0,83,0.00,,BKN120,0.50,VWS V14.01,2013-02-03 01:45:00,
2013-02-02 19:47:00,46.4,40.6,30.33,WSW,248,0.0,0.0,80,0.00,,FEW250,0.50,VWS V14.01,2013-02-03 01:47:00,
2013-02-02 19:50:00,45.1,40.3,30.33,SSE,158,0.0,0.0,83,0.00,,CLR,0.50,VWS V14.01,2013-02-03 01:50:00,
2013-02-02 19:52:00,46.2,40.4,30.33,WSW,248,0.0,0.0,80,0.00,,FEW250,0.50,VWS V14.01,2013-02-03 01:52:00,
2013-02-02 19:55:00,45.1,40.6,30.33,South,180,0.0,0.0,84,0.00,,BKN120,0.50,VWS V14.01,2013-02-03 01:55:00,
2013-02-02 19:57:00,46.2,40.7,30.33,WSW,248,0.0,0.0,81,0.00,,FEW250,0.50,VWS V14.01,2013-02-03 01:57:00,
2013-02-02 20:00:00,45.0,40.4,30.33,South,180,0.0,0.0,84,0.00,,BKN120,0.50,VWS V14.01,2013-02-03 02:00:00,
2013-02-02 20:02:00,46.0,40.9,30.33,WSW,248,0.0,0.0,82,0.00,,FEW250,0.50,VWS V14.01,2013-02-03 02:02:00,
2013-02-02 20:05:00,45.0,40.4,30.33,South,180,0.0,0.0,84,0.00,,BKN120,0.50,VWS V14.01,2013-02-03 02:05:00,
2013-02-02 20:07:00,45.9,40.4,30.33,WSW,248,0.0,0.0,81,0.00,,FEW250,0.50,VWS V14.01,2013-02-03 02:07:00,
2013-02-02 20:10:00,44.8,40.2,30.33,South,180,0.0,0.0,84,0.00,,BKN120,0.50,VWS V14.01,2013-02-03 02:10:00,
2013-02-02 20:13:00,45.9,40.7,30.33,WSW,248,0.0,0.0,82,0.00,,FEW250,0.50,VWS V14.01,2013-02-03 02:13:00,
2013-02-02 20:15:00,44.8,40.2,30.33,South,180,0.0,0.0,84,0.00,,BKN120,0.50,VWS V14.01,2013-02-03 02:15:00,
2013-02-02 20:18:00,45.7,40.5,30.33,WSW,248,0.0,0.0,82,0.00,,FEW250,0.50,VWS V14.01,2013-02-03 02:18:00,
2013-02-02 20:20:00,44.8,40.2,30.33,South,180,0.0,0.0,84,0.00,,CLR,0.50,VWS V14.01,2013-02-03 02:20:00,
2013-02-02 20:23:00,45.5,40.7,30.33,WSW,248,0.0,0.0,83,0.00,,FEW250,0.50,VWS V14.01,2013-02-03 02:23:00,
2013-02-02 20:25:00,44.6,40.4,30.33,South,180,0.0,0.0,85,0.00,,BKN120,0.50,VWS V14.01,2013-02-03 02:25:00,
2013-02-02 20:28:00,45.5,40.7,30.33,WSW,248,0.0,0.0,83,0.00,,FEW250,0.50,VWS V14.01,2013-02-03 02:28:00,
2013-02-02 20:30:00,44.6,40.4,30.33,SSW,202,0.0,0.0,85,0.00,,BKN120,0.50,VWS V14.01,2013-02-03 02:30:00,
2013-02-02 20:33:00,45.3,40.5,30.33,WSW,248,0.0,0.0,83,0.00,,FEW250,0.50,VWS V14.01,2013-02-03 02:33:00,
2013-02-02 20:35:00,44.6,40.4,30.30,SSW,202,0.0,0.0,85,0.00,,BKN120,0.50,VWS V14.01,2013-02-03 02:35:00,
2013-02-02 20:38:00,45.3,40.8,30.33,WSW,248,0.0,0.0,84,0.00,,FEW250,0.50,VWS V14.01,2013-02-03 02:38:00,
2013-02-02 20:40:00,44.6,40.4,30.30,SSW,202,0.0,0.0,85,0.00,,BKN120,0.50,VWS V14.01,2013-02-03 02:40:00,
2013-02-02 20:43:00,45.1,40.3,30.33,SSE,158,0.0,0.0,83,0.00,,FEW250,0.50,VWS V14.01,2013-02-03 02:43:00,
2013-02-02 20:45:00,44.6,40.4,30.30,SSW,202,0.0,0.0,85,0.00,,BKN120,0.50,VWS V14.01,2013-02-03 02:45:00,
2013-02-02 20:48:00,45.1,40.3,30.33,SSE,158,0.0,0.0,83,0.00,,FEW250,0.50,VWS V14.01,2013-02-03 02:48:00,
2013-02-02 20:50:00,44.8,40.5,30.30,SSW,202,0.0,0.0,85,0.00,,BKN120,0.50,VWS V14.01,2013-02-03 02:50:00,
2013-02-02 20:53:00,45.1,40.6,30.33,South,180,0.0,0.0,84,0.00,,FEW250,0.50,VWS V14.01,2013-02-03 02:53:00,
2013-02-02 20:55:00,44.8,40.5,30.30,SSW,202,0.0,0.0,85,0.00,,CLR,0.50,VWS V14.01,2013-02-03 02:55:00,
2013-02-02 20:58:00,45.1,40.6,30.33,South,180,0.0,0.0,84,0.00,,FEW250,0.50,VWS V14.01,2013-02-03 02:58:00,
2013-02-02 21:00:00,45.0,40.7,30.30,SSW,202,0.0,0.0,85,0.00,,CLR,0.50,VWS V14.01,2013-02-03 03:00:00,
2013-02-02 21:03:00,45.0,40.4,30.33,South,180,0.0,0.0,84,0.00,,FEW250,0.50,VWS V14.01,2013-02-03 03:03:00,
2013-02-02 21:05:00,45.1,41.2,30.30,SSW,202,0.0,0.0,86,0.00,,BKN120,0.50,VWS V14.01,2013-02-03 03:05:00,
2013-02-02 21:08:00,44.8,40.2,30.33,South,180,0.0,0.0,84,0.00,,FEW250,0.50,VWS V14.01,2013-02-03 03:08:00,
2013-02-02 21:10:00,45.1,41.2,30.30,SSW,202,0.0,0.0,86,0.00,,BKN120,0.50,VWS V14.01,2013-02-03 03:10:00,
2013-02-02 21:13:00,44.8,40.2,30.33,South,180,0.0,0.0,84,0.00,,FEW250,0.50,VWS V14.01,2013-02-03 03:13:00,
2013-02-02 21:15:00,45.1,41.2,30.30,SSW,202,0.0,0.0,86,0.00,,BKN120,0.50,VWS V14.01,2013-02-03 03:15:00,
2013-02-02 21:18:00,44.8,40.2,30.33,South,180,0.0,0.0,84,0.00,,FEW250,0.50,VWS V14.01,2013-02-03 03:18:00,
2013-02-02 21:20:00,45.1,41.2,30.30,SSW,202,0.0,0.0,86,0.00,,BKN120,0.50,VWS V14.01,2013-02-03 03:20:00,
2013-02-02 21:23:00,44.8,40.5,30.33,South,180,0.0,0.0,85,0.00,,FEW250,0.00,VWS V14.01,2013-02-03 03:23:00,
2013-02-02 21:25:00,45.1,41.2,30.30,SSW,202,0.0,0.0,86,0.00,,BKN120,0.50,VWS V14.01,2013-02-03 03:25:00,
2013-02-02 21:28:00,44.6,40.4,30.33,SSW,202,0.0,0.0,85,0.00,,FEW250,0.50,VWS V14.01,2013-02-03 03:28:00,
2013-02-02 21:30:00,45.1,41.2,30.30,SSW,202,0.0,0.0,86,0.00,,BKN120,0.50,VWS V14.01,2013-02-03 03:30:00,
2013-02-02 21:33:00,44.8,40.5,30.30,SSW,202,0.0,0.0,85,0.00,,FEW250,0.50,VWS V14.01,2013-02-03 03:33:00,
2013-02-02 21:35:00,45.1,41.2,30.30,SSW,202,0.0,0.0,86,0.00,,BKN120,0.50,VWS V14.01,2013-02-03 03:35:00,
2013-02-02 21:38:00,44.6,40.4,30.30,SSW,202,0.0,0.0,85,0.00,,FEW250,0.50,VWS V14.01,2013-02-03 03:38:00,
2013-02-02 21:40:00,45.0,41.0,30.30,SSW,202,0.0,0.0,86,0.00,,BKN120,0.50,VWS V14.01,2013-02-03 03:40:00,
2013-02-02 21:43:00,44.6,40.4,30.30,SSW,202,0.0,0.0,85,0.00,,FEW250,0.50,VWS V14.01,2013-02-03 03:43:00,
2013-02-02 21:45:00,44.8,40.9,30.30,SSW,202,0.0,0.0,86,0.00,,BKN120,0.50,VWS V14.01,2013-02-03 03:45:00,
2013-02-02 21:48:00,44.8,40.5,30.30,SSW,202,0.0,0.0,85,0.00,,FEW250,0.50,VWS V14.01,2013-02-03 03:48:00,
2013-02-02 21:50:00,44.8,40.9,30.27,SSW,202,0.0,0.0,86,0.00,,BKN120,0.50,VWS V14.01,2013-02-03 03:50:00,
2013-02-02 21:54:00,44.8,40.5,30.30,SSW,202,0.0,0.0,85,0.00,,FEW250,0.50,VWS V14.01,2013-02-03 03:54:00,
2013-02-02 21:55:00,44.8,40.9,30.27,SSW,202,0.0,0.0,86,0.00,,BKN120,0.50,VWS V14.01,2013-02-03 03:55:00,
2013-02-02 21:59:00,45.0,40.7,30.30,SSW,202,0.0,0.0,85,0.00,,FEW250,0.50,VWS V14.01,2013-02-03 03:59:00,
2013-02-02 22:00:00,44.8,40.9,30.27,SSE,158,0.0,0.0,86,0.00,,CLR,0.50,VWS V14.01,2013-02-03 04:00:00,
2013-02-02 22:04:00,45.1,41.2,30.30,SSW,202,0.0,0.0,86,0.00,,FEW250,0.50,VWS V14.01,2013-02-03 04:04:00,
2013-02-02 22:05:00,44.6,41.0,30.27,SSE,158,0.0,0.0,87,0.00,,BKN120,0.50,VWS V14.01,2013-02-03 04:05:00,
2013-02-02 22:09:00,45.1,41.2,30.30,SSW,202,0.0,0.0,86,0.00,,FEW250,0.50,VWS V14.01,2013-02-03 04:09:00,
2013-02-02 22:10:00,44.6,41.0,30.27,SSE,158,0.0,0.0,87,0.00,,BKN120,0.50,VWS V14.01,2013-02-03 04:10:00,
2013-02-02 22:14:00,45.1,41.2,30.30,SSW,202,0.0,0.0,86,0.00,,FEW250,0.50,VWS V14.01,2013-02-03 04:14:00,
2013-02-02 22:15:00,44.6,40.7,30.27,SSE,158,0.0,0.0,86,0.00,,BKN120,0.50,VWS V14.01,2013-02-03 04:15:00,
2013-02-02 22:19:00,45.1,41.2,30.30,SSW,202,0.0,0.0,86,0.00,,FEW250,0.50,VWS V14.01,2013-02-03 04:19:00,
2013-02-02 22:20:00,44.6,41.0,30.24,SSE,158,0.0,0.0,87,0.00,,CLR,0.50,VWS V14.01,2013-02-03 04:20:00,
2013-02-02 22:24:00,45.1,41.2,30.30,SSW,202,0.0,0.0,86,0.00,,FEW250,0.50,VWS V14.01,2013-02-03 04:24:00,
2013-02-02 22:25:00,44.6,41.0,30.24,SSE,158,0.0,0.0,87,0.00,,BKN120,0.50,VWS V14.01,2013-02-03 04:25:00,
2013-02-02 22:29:00,45.1,41.2,30.30,SSW,202,0.0,0.0,86,0.00,,FEW250,0.50,VWS V14.01,2013-02-03 04:29:00,
2013-02-02 22:30:00,44.6,41.0,30.24,SSE,158,0.0,0.0,87,0.00,,CLR,0.50,VWS V14.01,2013-02-03 04:30:00,
2013-02-02 22:34:00,45.1,41.2,30.30,SSW,202,0.0,0.0,86,0.00,,FEW250,0.50,VWS V14.01,2013-02-03 04:34:00,
2013-02-02 22:35:00,44.6,41.0,30.27,SSE,158,0.0,0.0,87,0.00,,BKN120,0.50,VWS V14.01,2013-02-03 04:35:00,
2013-02-02 22:39:00,45.0,41.0,30.30,SSW,202,0.0,0.0,86,0.00,,FEW250,0.50,VWS V14.01,2013-02-03 04:39:00,
2013-02-02 22:40:00,44.8,41.2,30.27,SSE,158,0.0,0.0,87,0.00,,CLR,0.50,VWS V14.01,2013-02-03 04:40:00,
2013-02-02 22:44:00,44.8,40.9,30.30,SSW,202,0.0,0.0,86,0.00,,FEW250,0.50,VWS V14.01,2013-02-03 04:44:00,
2013-02-02 22:45:00,44.8,41.5,30.27,SSE,158,0.0,0.0,88,0.00,,BKN120,0.50,VWS V14.01,2013-02-03 04:45:00,
2013-02-02 22:49:00,44.8,40.9,30.27,SSW,202,0.0,0.0,86,0.00,,FEW250,0.50,VWS V14.01,2013-02-03 04:49:00,
2013-02-02 22:50:00,44.8,41.5,30.24,SSE,158,0.0,0.0,88,0.00,,BKN120,0.50,VWS V14.01,2013-02-03 04:50:00,
2013-02-02 22:54:00,44.8,40.9,30.27,SSW,202,0.0,0.0,86,0.00,,FEW250,0.50,VWS V14.01,2013-02-03 04:54:00,
2013-02-02 22:55:00,45.0,41.6,30.24,SSE,158,0.0,0.0,88,0.00,,BKN120,0.50,VWS V14.01,2013-02-03 04:55:00,
2013-02-02 22:59:00,44.8,40.9,30.27,SSE,158,0.0,0.0,86,0.00,,FEW250,0.50,VWS V14.01,2013-02-03 04:59:00,
2013-02-02 23:00:00,44.8,40.9,30.27,SSE,158,0.0,0.0,86,0.00,,FEW250,0.50,VWS V14.01,2013-02-03 05:00:00,
2013-02-02 23:01:00,44.8,41.2,30.27,SSE,158,0.0,0.0,87,0.00,,FEW250,0.50,VWS V14.01,2013-02-03 05:01:00,
2013-02-02 23:03:00,44.6,41.0,30.27,SSE,158,0.0,0.0,87,0.00,,FEW250,0.50,VWS V14.01,2013-02-03 05:03:00,
2013-02-02 23:04:00,44.6,41.0,30.27,SSE,158,0.0,0.0,87,0.00,,FEW250,0.50,VWS V14.01,2013-02-03 05:04:00,
2013-02-02 23:05:00,45.3,42.0,30.27,SSE,158,0.0,0.0,88,0.00,,CLR,0.00,VWS V14.01,2013-02-03 05:05:00,
2013-02-02 23:09:00,44.6,41.0,30.27,SSE,158,0.0,0.0,87,0.00,,FEW250,0.50,VWS V14.01,2013-02-03 05:09:00,
2013-02-02 23:10:00,45.5,42.2,30.27,SSE,158,0.0,0.0,88,0.00,,CLR,0.00,VWS V14.01,2013-02-03 05:10:00,
2013-02-02 23:14:00,44.6,40.7,30.27,SSE,158,0.0,0.0,86,0.00,,FEW250,0.50,VWS V14.01,2013-02-03 05:14:00,
2013-02-02 23:15:00,45.9,42.5,30.27,SSE,158,0.0,0.0,88,0.00,,BKN120,0.00,VWS V14.01,2013-02-03 05:15:00,
2013-02-02 23:19:00,44.6,41.0,30.24,SSE,158,0.0,0.0,87,0.00,,FEW250,0.50,VWS V14.01,2013-02-03 05:19:00,
2013-02-02 23:20:00,46.2,43.2,30.27,SSE,158,0.0,0.0,89,0.00,,BKN120,0.00,VWS V14.01,2013-02-03 05:20:00,
2013-02-02 23:24:00,44.6,41.0,30.24,SSE,158,0.0,0.0,87,0.00,,FEW250,0.50,VWS V14.01,2013-02-03 05:24:00,
2013-02-02 23:25:00,46.2,43.2,30.27,SSE,158,0.0,0.0,89,0.00,,CLR,0.00,VWS V14.01,2013-02-03 05:25:00,
2013-02-02 23:29:00,44.6,41.0,30.24,SSE,158,0.0,0.0,87,0.00,,FEW250,0.50,VWS V14.01,2013-02-03 05:29:00,
2013-02-02 23:30:00,46.2,43.2,30.27,SSE,158,0.0,0.0,89,0.00,,BKN120,0.00,VWS V14.01,2013-02-03 05:30:00,
2013-02-02 23:34:00,44.6,41.0,30.27,SSE,158,0.0,0.0,87,0.00,,FEW250,0.50,VWS V14.01,2013-02-03 05:34:00,
2013-02-02 23:35:00,46.2,43.2,30.27,SSE,158,0.0,0.0,89,0.00,,BKN120,0.00,VWS V14.01,2013-02-03 05:35:00,
2013-02-02 23:39:00,44.8,41.2,30.27,SSE,158,0.0,0.0,87,0.00,,FEW250,0.50,VWS V14.01,2013-02-03 05:39:00,
2013-02-02 23:40:00,46.2,43.2,30.27,SSE,158,0.0,0.0,89,0.00,,CLR,0.00,VWS V14.01,2013-02-03 05:40:00,
2013-02-02 23:44:00,44.8,41.5,30.27,SSE,158,0.0,0.0,88,0.00,,FEW250,0.50,VWS V14.01,2013-02-03 05:44:00,
2013-02-02 23:45:00,46.2,43.2,30.27,SSE,158,0.0,0.0,89,0.00,,BKN120,0.00,VWS V14.01,2013-02-03 05:45:00,
2013-02-02 23:49:00,44.8,41.5,30.24,SSE,158,0.0,0.0,88,0.00,,FEW250,0.50,VWS V14.01,2013-02-03 05:49:00,
2013-02-02 23:50:00,46.0,43.0,30.27,NW,315,0.0,0.0,89,0.00,,BKN120,0.00,VWS V14.01,2013-02-03 05:50:00,
2013-02-02 23:54:00,45.0,41.6,30.24,SSE,158,0.0,0.0,88,0.00,,FEW250,0.50,VWS V14.01,2013-02-03 05:54:00,
2013-02-02 23:55:00,46.0,43.0,30.27,NW,315,0.0,0.0,89,0.00,,BKN120,0.00,VWS V14.01,2013-02-03 05:55:00,
2013-02-02 23:59:00,45.1,41.8,30.24,SSE,158,0.0,0.0,88,0.00,,FEW250,0.00,VWS V14.01,2013-02-03 05:59:00,